Time;durP1;ratioP1;P1;durP2;ratioP2;P2;SDS_P1;SDS_P2;PMS_P1;PMS_P2;Temp;Humidity;BMP_temperature;BMP_pressure;BME280_temperature;BME280_humidity;BME280_pressure;Samples;Min_cycle;Max_cycle;Signal;HPM_P1;HPM_P2
2024/01/10 00:01:36;;;;;;;8.00;5.60;;;;;-5.60;96615.00;;;;5054418;28;20678;-62
2024/01/10 00:04:04;;;;;;;6.73;3.87;;;;;-5.60;96611.00;;;;5053769;28;20219;-63
2024/01/10 00:06:31;;;;;;;3.90;3.60;;;;;-5.60;96602.00;;;;5053363;28;20366;-62
2024/01/10 00:08:59;;;;;;;5.43;4.57;;;;;-5.50;96599.00;;;;5053488;28;20713;-62
2024/01/10 00:11:26;;;;;;;3.90;3.53;;;;;-5.50;96604.00;;;;5053449;28;20193;-63
2024/01/10 00:13:59;;;;;;;6.20;4.70;;;;;-5.60;96600.00;;;;5053370;28;20703;-62
2024/01/10 00:16:28;;;;;;;3.73;3.40;;;;;-5.60;96601.00;;;;5053625;28;20620;-62
2024/01/10 00:18:55;;;;;;;2.77;2.53;;;;;-5.60;96608.00;;;;5053203;28;20189;-64
2024/01/10 00:21:23;;;;;;;4.73;3.90;;;;;-5.40;96602.00;;;;5051982;28;20201;-62
2024/01/10 00:23:50;;;;;;;5.90;3.63;;;;;-5.40;96602.00;;;;5053085;28;20226;-62
2024/01/10 00:26:18;;;;;;;8.40;4.53;;;;;-5.40;96596.00;;;;5053623;28;20196;-62
2024/01/10 00:28:45;;;;;;;3.43;2.87;;;;;-5.40;96604.00;;;;5053249;28;20596;-62
2024/01/10 00:31:13;;;;;;;3.97;3.60;;;;;-5.50;96592.00;;;;5053025;28;20199;-62
2024/01/10 00:33:42;;;;;;;3.17;2.80;;;;;-5.60;96580.00;;;;5051899;28;20216;-63
2024/01/10 00:36:09;;;;;;;8.77;4.00;;;;;-5.50;96587.00;;;;5053444;28;20193;-61
2024/01/10 00:38:38;;;;;;;4.13;3.67;;;;;-5.60;96595.00;;;;5052826;28;20679;-61
2024/01/10 00:41:05;;;;;;;5.50;4.00;;;;;-5.60;96582.00;;;;5052211;28;20208;-63
2024/01/10 00:43:33;;;;;;;3.73;3.30;;;;;-5.50;96587.00;;;;5052849;28;20248;-62
2024/01/10 00:46:00;;;;;;;6.70;4.67;;;;;-5.60;96576.00;;;;5053063;28;20193;-61
2024/01/10 00:48:28;;;;;;;5.53;3.03;;;;;-5.70;96583.00;;;;5053262;28;20196;-61
2024/01/10 00:50:56;;;;;;;4.37;3.93;;;;;-5.70;96581.00;;;;5053014;28;20197;-61
2024/01/10 00:53:24;;;;;;;4.03;3.70;;;;;-5.60;96575.00;;;;5052899;28;20711;-62
2024/01/10 00:55:51;;;;;;;3.90;3.67;;;;;-5.60;96572.00;;;;5052854;28;20287;-62
2024/01/10 00:58:19;;;;;;;5.93;3.97;;;;;-5.60;96580.00;;;;5052913;28;20193;-62
2024/01/10 01:00:47;;;;;;;3.87;3.20;;;;;-5.50;96577.00;;;;5052778;28;20192;-62
2024/01/10 01:03:14;;;;;;;4.80;4.40;;;;;-5.50;96585.00;;;;5052895;28;20233;-62
2024/01/10 01:05:42;;;;;;;3.83;2.93;;;;;-5.50;96575.00;;;;5053228;28;20184;-62
2024/01/10 01:08:10;;;;;;;6.03;4.53;;;;;-5.50;96572.00;;;;5052991;28;20229;-62
2024/01/10 01:10:38;;;;;;;2.90;2.37;;;;;-5.40;96577.00;;;;5053236;28;20193;-62
2024/01/10 01:13:06;;;;;;;7.20;4.17;;;;;-5.40;96574.00;;;;5052590;28;20232;-62
2024/01/10 01:15:33;;;;;;;4.50;3.30;;;;;-5.30;96579.00;;;;5052706;28;20193;-62
2024/01/10 01:18:01;;;;;;;2.23;2.13;;;;;-5.30;96576.00;;;;5053061;28;20562;-62
2024/01/10 01:20:28;;;;;;;4.63;3.20;;;;;-5.30;96582.00;;;;5056408;28;20203;-62
2024/01/10 01:22:55;;;;;;;4.13;3.73;;;;;-5.30;96581.00;;;;5056963;28;20205;-62
2024/01/10 01:25:24;;;;;;;4.70;2.67;;;;;-5.20;96573.00;;;;5056499;28;20197;-62
2024/01/10 01:27:52;;;;;;;2.33;2.23;;;;;-5.20;96577.00;;;;5056435;28;20195;-62
2024/01/10 01:30:21;;;;;;;3.00;2.80;;;;;-5.30;96572.00;;;;5056533;28;20196;-62
2024/01/10 01:32:49;;;;;;;6.63;2.97;;;;;-5.30;96573.00;;;;5056369;28;20216;-62
2024/01/10 01:35:21;;;;;;;3.23;2.93;;;;;-5.40;96581.00;;;;5056364;28;20193;-61
2024/01/10 01:37:49;;;;;;;5.77;4.17;;;;;-5.40;96579.00;;;;5056739;28;20257;-62
2024/01/10 01:40:16;;;;;;;10.27;3.90;;;;;-5.50;96569.00;;;;5056080;28;20195;-63
2024/01/10 01:42:47;;;;;;;3.80;2.90;;;;;-5.40;96577.00;;;;5056261;28;20224;-62
2024/01/10 01:45:15;;;;;;;4.70;3.77;;;;;-5.30;96575.00;;;;5056027;28;20561;-62
2024/01/10 01:47:43;;;;;;;2.93;2.73;;;;;-5.30;96582.00;;;;5056115;28;20354;-62
2024/01/10 01:50:11;;;;;;;4.37;3.53;;;;;-5.40;96586.00;;;;5054738;28;20201;-62
2024/01/10 01:52:39;;;;;;;6.30;4.23;;;;;-5.30;96583.00;;;;5054617;28;20223;-62
2024/01/10 01:55:08;;;;;;;14.87;5.03;;;;;-5.40;96584.00;;;;5055968;28;20592;-62
2024/01/10 01:57:37;;;;;;;3.27;2.97;;;;;-5.40;96573.00;;;;5055909;28;20198;-62
2024/01/10 02:00:08;;;;;;;3.93;3.53;;;;;-5.20;96580.00;;;;5054483;28;20201;-62
2024/01/10 02:02:36;;;;;;;2.77;2.57;;;;;-5.20;96575.00;;;;5055859;28;20221;-62
2024/01/10 02:05:04;;;;;;;3.83;3.20;;;;;-5.20;96564.00;;;;5055656;28;20244;-62
2024/01/10 02:07:32;;;;;;;3.03;2.77;;;;;-5.20;96561.00;;;;5054436;28;20681;-62
2024/01/10 02:09:59;;;;;;;3.40;3.13;;;;;-5.30;96571.00;;;;5056172;28;20201;-62
2024/01/10 02:12:27;;;;;;;2.80;2.60;;;;;-5.30;96569.00;;;;5055540;28;20208;-62
2024/01/10 02:14:54;;;;;;;6.97;6.00;;;;;-5.30;96577.00;;;;5055595;28;20186;-62
2024/01/10 02:17:23;;;;;;;4.30;3.47;;;;;-5.30;96575.00;;;;5055579;28;20563;-62
2024/01/10 02:19:50;;;;;;;3.80;3.50;;;;;-5.30;96568.00;;;;5055443;28;20602;-62
2024/01/10 02:22:18;;;;;;;3.93;2.90;;;;;-5.30;96566.00;;;;5055834;28;20608;-62
2024/01/10 02:24:45;;;;;;;7.63;3.97;;;;;-5.20;96568.00;;;;5055513;28;20212;-62
2024/01/10 02:27:14;;;;;;;5.53;4.73;;;;;-5.20;96565.00;;;;5055254;28;20195;-63
2024/01/10 02:29:41;;;;;;;3.20;2.97;;;;;-5.10;96569.00;;;;5053809;28;20194;-62
2024/01/10 02:32:09;;;;;;;3.77;3.30;;;;;-5.10;96566.00;;;;5055145;28;20224;-62
2024/01/10 02:34:36;;;;;;;5.13;4.63;;;;;-5.10;96546.00;;;;5055709;28;20634;-63
2024/01/10 02:37:04;;;;;;;4.07;3.63;;;;;-5.10;96558.00;;;;5055043;28;20202;-62
2024/01/10 02:39:31;;;;;;;4.60;3.63;;;;;-4.90;96558.00;;;;5055318;28;20197;-62
2024/01/10 02:41:59;;;;;;;3.13;2.93;;;;;-5.00;96541.00;;;;5054712;28;20226;-62
2024/01/10 02:44:27;;;;;;;7.40;4.00;;;;;-4.90;96546.00;;;;5054318;28;20233;-62
2024/01/10 02:46:55;;;;;;;4.00;3.33;;;;;-5.00;96547.00;;;;5053604;28;20548;-62
2024/01/10 02:49:22;;;;;;;2.87;2.67;;;;;-5.20;96552.00;;;;5054999;28;20201;-62
2024/01/10 02:51:50;;;;;;;5.30;4.80;;;;;-5.10;96553.00;;;;5054698;28;20213;-62
2024/01/10 02:54:17;;;;;;;4.17;3.37;;;;;-5.30;96548.00;;;;5054748;28;20201;-62
2024/01/10 02:56:45;;;;;;;3.40;3.10;;;;;-5.30;96540.00;;;;5054873;28;20198;-63
2024/01/10 02:59:12;;;;;;;2.73;2.50;;;;;-5.10;96550.00;;;;5054690;28;20201;-62
2024/01/10 03:01:41;;;;;;;3.07;2.87;;;;;-5.30;96538.00;;;;5053140;28;20678;-62
2024/01/10 03:04:08;;;;;;;2.03;1.93;;;;;-5.10;96533.00;;;;5053130;28;20237;-62
2024/01/10 03:06:36;;;;;;;5.20;3.03;;;;;-5.00;96537.00;;;;5054463;28;20198;-62
2024/01/10 03:09:04;;;;;;;5.93;3.47;;;;;-4.90;96537.00;;;;5053178;28;20205;-62
2024/01/10 03:11:33;;;;;;;3.47;3.17;;;;;-4.80;96535.00;;;;5054220;28;20239;-62
2024/01/10 03:14:04;;;;;;;2.03;1.73;;;;;-4.80;96534.00;;;;5054384;28;20662;-62
2024/01/10 03:16:31;;;;;;;4.47;4.03;;;;;-4.90;96542.00;;;;5054409;28;20679;-62
2024/01/10 03:19:00;;;;;;;2.83;2.63;;;;;-4.90;96527.00;;;;5054290;28;20595;-61
2024/01/10 03:21:28;;;;;;;3.40;3.07;;;;;-4.90;96529.00;;;;5054516;28;20200;-61
2024/01/10 03:23:57;;;;;;;3.43;3.13;;;;;-4.90;96530.00;;;;5054262;28;20583;-61
2024/01/10 03:26:25;;;;;;;2.43;2.23;;;;;-4.90;96528.00;;;;5054472;28;20202;-62
2024/01/10 03:28:52;;;;;;;4.33;3.40;;;;;-4.80;96532.00;;;;5054097;28;20220;-62
2024/01/10 03:31:21;;;;;;;3.43;3.17;;;;;-4.80;96539.00;;;;5054048;28;20206;-62
2024/01/10 03:33:49;;;;;;;3.37;2.57;;;;;-4.80;96532.00;;;;5054455;28;20209;-62
2024/01/10 03:36:18;;;;;;;3.13;2.93;;;;;-4.70;96522.00;;;;5053943;28;20561;-62
2024/01/10 03:38:46;;;;;;;3.23;2.87;;;;;-4.90;96524.00;;;;5053940;28;20259;-62
2024/01/10 03:41:15;;;;;;;2.83;2.63;;;;;-4.90;96527.00;;;;5053310;28;20210;-62
2024/01/10 03:43:42;;;;;;;7.00;3.33;;;;;-4.80;96528.00;;;;5053607;28;20209;-62
2024/01/10 03:46:09;;;;;;;1.80;1.70;;;;;-4.90;96531.00;;;;5054146;28;20240;-61
2024/01/10 03:48:38;;;;;;;5.33;3.20;;;;;-4.90;96525.00;;;;5054183;28;20189;-61
2024/01/10 03:51:06;;;;;;;3.03;2.83;;;;;-5.00;96529.00;;;;5054220;28;20193;-64
2024/01/10 03:53:34;;;;;;;3.00;2.80;;;;;-4.90;96535.00;;;;5053556;28;20213;-63
2024/01/10 03:56:05;;;;;;;2.57;2.20;;;;;-5.00;96534.00;;;;5053889;28;20198;-63
2024/01/10 03:58:33;;;;;;;2.70;2.50;;;;;-4.90;96527.00;;;;5054147;28;20183;-63
2024/01/10 04:01:04;;;;;;;3.27;2.97;;;;;-4.90;96536.00;;;;5056656;28;20244;-63
2024/01/10 04:03:32;;;;;;;3.77;3.47;;;;;-4.80;96535.00;;;;5057114;28;20218;-63
2024/01/10 04:05:59;;;;;;;5.43;2.90;;;;;-4.70;96544.00;;;;5057018;28;20216;-63
2024/01/10 04:08:29;;;;;;;3.03;2.80;;;;;-4.70;96542.00;;;;5056177;28;20200;-63
2024/01/10 04:10:57;;;;;;;2.37;2.27;;;;;-4.70;96524.00;;;;5055023;28;20197;-64
2024/01/10 04:13:25;;;;;;;3.23;3.00;;;;;-4.60;96544.00;;;;5053718;28;20216;-63
2024/01/10 04:15:52;;;;;;;4.30;3.67;;;;;-4.60;96532.00;;;;5053693;28;20547;-63
2024/01/10 04:18:20;;;;;;;2.90;2.70;;;;;-4.70;96534.00;;;;5053517;28;20199;-63
2024/01/10 04:20:48;;;;;;;3.40;3.07;;;;;-4.60;96538.00;;;;5053311;28;20241;-63
2024/01/10 04:23:15;;;;;;;2.87;2.67;;;;;-4.60;96550.00;;;;5053349;28;20280;-63
2024/01/10 04:25:43;;;;;;;2.87;2.63;;;;;-4.70;96534.00;;;;5053164;28;20689;-63
2024/01/10 04:28:11;;;;;;;5.77;3.27;;;;;-4.80;96542.00;;;;5053303;28;20196;-63
2024/01/10 04:30:39;;;;;;;13.43;2.80;;;;;-4.70;96547.00;;;;5053392;28;20204;-63
2024/01/10 04:33:06;;;;;;;5.03;3.73;;;;;-4.70;96544.00;;;;5053149;28;20700;-63
2024/01/10 04:35:34;;;;;;;5.60;3.23;;;;;-4.50;96549.00;;;;5053171;28;20194;-63
2024/01/10 04:38:01;;;;;;;6.37;2.90;;;;;-4.70;96552.00;;;;5053368;28;20195;-63
2024/01/10 04:40:28;;;;;;;2.73;2.53;;;;;-4.70;96545.00;;;;5053266;28;20634;-63
2024/01/10 04:42:56;;;;;;;2.90;2.60;;;;;-4.90;96541.00;;;;5053216;28;20223;-63
2024/01/10 04:45:25;;;;;;;3.13;2.63;;;;;-4.70;96551.00;;;;5052856;28;20224;-63
2024/01/10 04:47:52;;;;;;;4.77;2.17;;;;;-4.80;96549.00;;;;5053228;28;20244;-63
2024/01/10 04:50:19;;;;;;;5.40;3.13;;;;;-4.70;96559.00;;;;5054848;28;20194;-63
2024/01/10 04:52:47;;;;;;;2.43;2.33;;;;;-4.60;96557.00;;;;5054621;28;20214;-63
2024/01/10 04:55:14;;;;;;;4.77;3.10;;;;;-4.70;96548.00;;;;5057552;28;20542;-63
2024/01/10 04:57:41;;;;;;;2.40;2.23;;;;;-4.70;96547.00;;;;5057254;28;20232;-63
2024/01/10 05:00:10;;;;;;;2.00;1.90;;;;;-4.60;96536.00;;;;5057670;28;20206;-63
2024/01/10 05:02:38;;;;;;;5.43;3.43;;;;;-4.60;96539.00;;;;5056927;28;20751;-63
2024/01/10 05:05:07;;;;;;;3.90;3.43;;;;;-4.60;96540.00;;;;5057044;28;20229;-63
2024/01/10 05:07:34;;;;;;;5.97;3.20;;;;;-4.60;96536.00;;;;5056974;28;20198;-63
2024/01/10 05:10:02;;;;;;;1.37;1.30;;;;;-4.60;96522.00;;;;5056903;28;20676;-63
2024/01/10 05:12:29;;;;;;;3.47;2.70;;;;;-4.50;96534.00;;;;5057036;28;20222;-63
2024/01/10 05:14:57;;;;;;;4.93;3.37;;;;;-4.60;96516.00;;;;5056733;28;20210;-63
2024/01/10 05:17:25;;;;;;;4.17;3.53;;;;;-4.60;96522.00;;;;5056910;28;20217;-63
2024/01/10 05:19:54;;;;;;;5.37;3.97;;;;;-4.60;96532.00;;;;5056772;28;20193;-64
2024/01/10 05:22:22;;;;;;;3.73;3.33;;;;;-4.70;96524.00;;;;5056852;28;20577;-63
2024/01/10 05:24:49;;;;;;;5.43;3.50;;;;;-4.70;96526.00;;;;5056529;28;20308;-63
2024/01/10 05:27:17;;;;;;;3.57;3.17;;;;;-4.70;96548.00;;;;5056602;28;20199;-63
2024/01/10 05:29:46;;;;;;;3.20;3.00;;;;;-4.80;96539.00;;;;5056534;28;20194;-63
2024/01/10 05:32:13;;;;;;;3.73;3.47;;;;;-4.80;96536.00;;;;5056354;28;20264;-63
2024/01/10 05:34:40;;;;;;;4.23;3.83;;;;;-4.80;96548.00;;;;5056308;28;20198;-63
2024/01/10 05:37:09;;;;;;;3.80;3.50;;;;;-4.80;96540.00;;;;5056288;28;20200;-63
2024/01/10 05:39:37;;;;;;;8.40;3.40;;;;;-4.70;96550.00;;;;5056318;28;20613;-63
2024/01/10 05:42:05;;;;;;;3.73;3.53;;;;;-4.80;96548.00;;;;5056333;28;20297;-63
2024/01/10 05:44:32;;;;;;;3.47;2.87;;;;;-4.80;96541.00;;;;5056517;28;20222;-63
2024/01/10 05:47:00;;;;;;;4.40;4.00;;;;;-4.90;96545.00;;;;5056535;28;20200;-63
2024/01/10 05:49:27;;;;;;;4.87;3.57;;;;;-5.00;96550.00;;;;5056139;28;20253;-63
2024/01/10 05:51:55;;;;;;;4.47;4.10;;;;;-5.10;96546.00;;;;5056070;28;20747;-63
2024/01/10 05:54:27;;;;;;;3.37;3.17;;;;;-5.10;96549.00;;;;5056101;28;20208;-63
2024/01/10 05:56:54;;;;;;;2.93;2.73;;;;;-5.20;96551.00;;;;5056525;28;20263;-63
2024/01/10 05:59:22;;;;;;;3.87;2.87;;;;;-5.20;96548.00;;;;5054507;28;20205;-63
2024/01/10 06:01:49;;;;;;;5.80;3.60;;;;;-5.20;96540.00;;;;5055651;28;20570;-63
2024/01/10 06:04:16;;;;;;;6.73;3.40;;;;;-5.30;96546.00;;;;5055197;28;20284;-63
2024/01/10 06:06:45;;;;;;;5.63;3.67;;;;;-5.30;96543.00;;;;5055919;28;20222;-63
2024/01/10 06:09:12;;;;;;;3.43;3.13;;;;;-5.30;96543.00;;;;5055667;28;20205;-63
2024/01/10 06:11:43;;;;;;;3.57;2.80;;;;;-5.30;96553.00;;;;5055855;28;20286;-63
2024/01/10 06:14:11;;;;;;;3.43;2.77;;;;;-5.30;96538.00;;;;5055787;28;20596;-63
2024/01/10 06:16:40;;;;;;;2.10;1.90;;;;;-5.20;96551.00;;;;5055546;28;20194;-63
2024/01/10 06:19:07;;;;;;;6.63;5.23;;;;;-5.30;96534.00;;;;5055512;28;20195;-63
2024/01/10 06:21:34;;;;;;;6.63;4.57;;;;;-5.30;96534.00;;;;5055397;28;20201;-63
2024/01/10 06:24:02;;;;;;;5.47;4.50;;;;;-5.20;96537.00;;;;5055277;28;20249;-63
2024/01/10 06:26:29;;;;;;;5.37;4.83;;;;;-5.20;96534.00;;;;5055126;28;20213;-63
2024/01/10 06:28:58;;;;;;;8.83;6.90;;;;;-5.20;96527.00;;;;5055319;28;20194;-63
2024/01/10 06:31:25;;;;;;;20.87;9.07;;;;;-5.40;96532.00;;;;5055735;28;20537;-62
2024/01/10 06:33:53;;;;;;;7.00;4.20;;;;;-5.30;96525.00;;;;5055459;28;20193;-62
2024/01/10 06:36:20;;;;;;;7.93;5.13;;;;;-5.40;96531.00;;;;5055186;28;20190;-63
2024/01/10 06:38:48;;;;;;;4.17;3.17;;;;;-5.40;96533.00;;;;5054002;28;20213;-63
2024/01/10 06:41:15;;;;;;;9.37;5.87;;;;;-5.40;96545.00;;;;5055171;28;20200;-63
2024/01/10 06:43:43;;;;;;;6.10;4.60;;;;;-5.40;96538.00;;;;5055004;28;20212;-63
2024/01/10 06:46:12;;;;;;;2.97;2.77;;;;;-5.40;96542.00;;;;5055292;28;20217;-63
2024/01/10 06:48:39;;;;;;;4.13;3.70;;;;;-5.40;96551.00;;;;5053628;28;20197;-63
2024/01/10 06:51:12;;;;;;;6.63;4.37;;;;;-5.60;96540.00;;;;5054897;28;20204;-63
2024/01/10 06:53:39;;;;;;;9.03;5.30;;;;;-5.50;96549.00;;;;5053476;28;20214;-63
2024/01/10 06:56:09;;;;;;;6.30;5.03;;;;;-5.60;96552.00;;;;5054755;28;20190;-63
2024/01/10 06:58:36;;;;;;;3.97;3.57;;;;;-5.70;96572.00;;;;5054945;28;20202;-63
2024/01/10 07:01:05;;;;;;;9.30;5.40;;;;;-5.70;96584.00;;;;5053460;28;20197;-63
2024/01/10 07:03:34;;;;;;;6.33;5.10;;;;;-5.70;96573.00;;;;5054504;28;20293;-63
2024/01/10 07:06:02;;;;;;;19.20;4.17;;;;;-5.80;96581.00;;;;5054715;28;20569;-63
2024/01/10 07:08:30;;;;;;;5.13;4.07;;;;;-5.80;96577.00;;;;5053272;28;20204;-63
2024/01/10 07:10:58;;;;;;;9.47;5.53;;;;;-5.90;96579.00;;;;5055078;28;20233;-63
2024/01/10 07:13:25;;;;;;;6.43;5.37;;;;;-5.80;96575.00;;;;5054704;28;20213;-63
2024/01/10 07:15:53;;;;;;;12.10;4.80;;;;;-5.80;96569.00;;;;5053882;28;20188;-62
2024/01/10 07:18:20;;;;;;;5.80;4.83;;;;;-5.80;96578.00;;;;5054948;28;20247;-63
2024/01/10 07:20:49;;;;;;;5.10;4.60;;;;;-5.90;96578.00;;;;5054876;28;20201;-63
2024/01/10 07:23:17;;;;;;;10.80;5.13;;;;;-5.90;96576.00;;;;5054434;28;20209;-63
2024/01/10 07:25:44;;;;;;;6.67;4.57;;;;;-5.90;96579.00;;;;5054383;28;20220;-64
2024/01/10 07:28:12;;;;;;;3.20;2.90;;;;;-5.90;96582.00;;;;5054443;28;20194;-63
2024/01/10 07:30:39;;;;;;;3.27;2.93;;;;;-5.90;96594.00;;;;5054215;28;20197;-63
2024/01/10 07:33:07;;;;;;;7.43;4.50;;;;;-5.90;96575.00;;;;5054168;28;20209;-65
2024/01/10 07:35:35;;;;;;;6.87;3.93;;;;;-5.90;96579.00;;;;5055523;28;20714;-63
2024/01/10 07:38:04;;;;;;;4.83;3.57;;;;;-5.90;96583.00;;;;5054277;28;20678;-63
2024/01/10 07:40:31;;;;;;;4.50;4.10;;;;;-5.90;96590.00;;;;5054904;28;20188;-63
2024/01/10 07:42:59;;;;;;;12.17;5.70;;;;;-5.80;96591.00;;;;5054720;28;20294;-63
2024/01/10 07:45:27;;;;;;;5.27;4.87;;;;;-5.80;96580.00;;;;5054452;28;20219;-63
2024/01/10 07:47:55;;;;;;;16.50;6.17;;;;;-5.90;96591.00;;;;5054115;28;20199;-62
2024/01/10 07:50:27;;;;;;;11.33;5.60;;;;;-5.80;96592.00;;;;5054149;28;20193;-63
2024/01/10 07:52:54;;;;;;;6.77;5.50;;;;;-5.80;96593.00;;;;5054245;28;20258;-62
2024/01/10 07:55:23;;;;;;;3.33;3.03;;;;;-5.90;96599.00;;;;5054031;28;20215;-62
2024/01/10 07:57:51;;;;;;;9.93;4.63;;;;;-5.90;96610.00;;;;5054121;28;20218;-62
2024/01/10 08:00:20;;;;;;;2.67;2.27;;;;;-5.80;96603.00;;;;5053773;28;20228;-62
2024/01/10 08:02:49;;;;;;;8.70;2.63;;;;;-5.70;96603.00;;;;5054609;28;20236;-66
2024/01/10 08:05:17;;;;;;;4.90;2.77;;;;;-5.60;96605.00;;;;5046352;28;20201;-63
2024/01/10 08:07:44;;;;;;;8.90;5.13;;;;;-5.50;96620.00;;;;5050186;28;20201;-64
2024/01/10 08:10:13;;;;;;;4.97;3.30;;;;;-5.40;96609.00;;;;5052032;28;20309;-64
2024/01/10 08:12:42;;;;;;;4.73;3.20;;;;;-5.40;96606.00;;;;5050881;28;20773;-64
2024/01/10 08:15:10;;;;;;;4.57;4.17;;;;;-5.40;96617.00;;;;5051702;28;20237;-62
2024/01/10 08:17:38;;;;;;;5.53;3.53;;;;;-5.30;96610.00;;;;5049951;28;20196;-62
2024/01/10 08:20:07;;;;;;;8.93;5.57;;;;;-5.20;96619.00;;;;5050910;28;20668;-62
2024/01/10 08:22:34;;;;;;;5.40;4.53;;;;;-5.20;96617.00;;;;5051781;28;20222;-62
2024/01/10 08:25:02;;;;;;;4.83;3.93;;;;;-5.10;96625.00;;;;5050979;28;20231;-62
2024/01/10 08:27:30;;;;;;;4.17;3.77;;;;;-5.10;96618.00;;;;5051445;28;20221;-62
2024/01/10 08:29:59;;;;;;;4.50;3.87;;;;;-5.10;96617.00;;;;5051227;28;20201;-62
2024/01/10 08:32:26;;;;;;;6.70;4.77;;;;;-5.20;96614.00;;;;5051363;28;20226;-62
2024/01/10 08:34:54;;;;;;;6.20;5.63;;;;;-5.00;96610.00;;;;5049453;28;20208;-61
2024/01/10 08:37:21;;;;;;;5.83;4.57;;;;;-4.90;96605.00;;;;5051637;28;20200;-61
2024/01/10 08:39:50;;;;;;;4.50;4.10;;;;;-4.70;96611.00;;;;5051064;28;20205;-61
2024/01/10 08:42:17;;;;;;;4.00;3.60;;;;;-4.70;96608.00;;;;5052209;28;20228;-62
2024/01/10 08:44:49;;;;;;;4.33;3.93;;;;;-4.80;96615.00;;;;5052461;28;20191;-62
2024/01/10 08:47:18;;;;;;;4.07;3.77;;;;;-4.70;96583.00;;;;5052340;28;20214;-62
2024/01/10 08:49:45;;;;;;;5.93;2.97;;;;;-4.70;96622.00;;;;5050802;28;20214;-62
2024/01/10 08:52:13;;;;;;;5.53;4.37;;;;;-4.60;96611.00;;;;5051253;28;20227;-62
2024/01/10 08:54:40;;;;;;;7.30;3.57;;;;;-4.60;96614.00;;;;5050461;28;20309;-62
2024/01/10 08:57:08;;;;;;;1.73;1.63;;;;;-4.40;96624.00;;;;5051354;28;21192;-62
2024/01/10 08:59:35;;;;;;;5.03;4.57;;;;;-4.20;96621.00;;;;5049863;28;20236;-62
2024/01/10 09:02:03;;;;;;;7.60;5.27;;;;;-4.10;96623.00;;;;5050605;28;20231;-63
2024/01/10 09:04:32;;;;;;;3.40;3.10;;;;;-4.00;96632.00;;;;5050571;28;20206;-62
2024/01/10 09:06:59;;;;;;;5.83;5.23;;;;;-4.30;96630.00;;;;5051206;28;20248;-62
2024/01/10 09:09:27;;;;;;;4.17;3.73;;;;;-4.10;96636.00;;;;5050605;28;20286;-62
2024/01/10 09:11:56;;;;;;;3.30;3.07;;;;;-3.90;96628.00;;;;5046547;28;20222;-62
2024/01/10 09:14:23;;;;;;;3.80;3.40;;;;;-3.70;96642.00;;;;5049948;28;20253;-62
2024/01/10 09:16:52;;;;;;;4.57;3.77;;;;;-3.40;96631.00;;;;5048494;28;20213;-62
2024/01/10 09:19:19;;;;;;;9.10;5.13;;;;;-3.50;96645.00;;;;5051019;28;20264;-62
2024/01/10 09:21:49;;;;;;;5.17;4.67;;;;;-3.60;96637.00;;;;5051500;28;20223;-62
2024/01/10 09:24:17;;;;;;;4.03;3.10;;;;;-3.40;96625.00;;;;5050605;28;20668;-62
2024/01/10 09:26:45;;;;;;;4.80;4.07;;;;;-3.30;96642.00;;;;5051302;28;20266;-62
2024/01/10 09:29:12;;;;;;;4.47;3.83;;;;;-3.50;96642.00;;;;5050399;28;20225;-62
2024/01/10 09:31:40;;;;;;;5.30;3.37;;;;;-3.60;96648.00;;;;5051365;28;20211;-62
2024/01/10 09:34:08;;;;;;;3.90;2.70;;;;;-3.20;96652.00;;;;5050571;28;20200;-62
2024/01/10 09:36:36;;;;;;;4.57;4.17;;;;;-3.30;96651.00;;;;5050695;28;20200;-62
2024/01/10 09:39:09;;;;;;;4.90;4.50;;;;;-3.10;96644.00;;;;5050645;28;20207;-61
2024/01/10 09:41:46;;;;;;;6.20;4.53;;;;;-3.20;96651.00;;;;5054889;28;20289;-61
2024/01/10 09:44:14;;;;;;;3.70;3.40;;;;;-2.90;96649.00;;;;5050811;28;20191;-61
2024/01/10 09:46:44;;;;;;;4.10;3.70;;;;;-2.90;96642.00;;;;5054300;28;20689;-62
2024/01/10 09:49:12;;;;;;;5.97;4.93;;;;;-2.60;96651.00;;;;5054239;28;20199;-62
2024/01/10 09:51:43;;;;;;;8.30;4.80;;;;;-2.60;96640.00;;;;5054074;28;20675;-62
2024/01/10 09:54:12;;;;;;;8.67;4.47;;;;;-2.70;96649.00;;;;5053744;28;20744;-61
2024/01/10 09:56:39;;;;;;;4.00;3.60;;;;;-2.60;96646.00;;;;5053916;28;20202;-61
2024/01/10 09:59:10;;;;;;;4.93;3.90;;;;;-2.40;96656.00;;;;5053834;28;20202;-61
2024/01/10 10:01:41;;;;;;;5.47;3.67;;;;;-2.50;96647.00;;;;5053875;28;20275;-61
2024/01/10 10:04:10;;;;;;;2.80;2.53;;;;;-2.50;96654.00;;;;5052387;28;20234;-61
2024/01/10 10:06:37;;;;;;;7.50;5.07;;;;;-2.30;96654.00;;;;5053739;28;20258;-61
2024/01/10 10:09:05;;;;;;;5.00;4.07;;;;;-2.10;96647.00;;;;5053649;28;20567;-61
2024/01/10 10:11:34;;;;;;;6.07;4.00;;;;;-2.00;96647.00;;;;5052192;28;20204;-62
2024/01/10 10:14:16;;;;;;;7.07;4.03;;;;;-2.30;96644.00;;;;5053580;28;20200;-62
2024/01/10 10:16:45;;;;;;;4.00;3.63;;;;;-2.40;96654.00;;;;5053932;28;20184;-62
2024/01/10 10:19:13;;;;;;;4.20;3.57;;;;;-2.00;96638.00;;;;5053456;28;20711;-62
2024/01/10 10:21:41;;;;;;;4.90;4.40;;;;;-1.80;96640.00;;;;5053378;28;20200;-62
2024/01/10 10:24:10;;;;;;;3.83;3.53;;;;;-1.60;96644.00;;;;5053483;28;20208;-62
2024/01/10 10:26:41;;;;;;;3.67;3.33;;;;;-1.60;96642.00;;;;5053204;28;20243;-62
2024/01/10 10:29:08;;;;;;;2.87;2.67;;;;;-1.90;96638.00;;;;5053360;28;20192;-62
2024/01/10 10:31:37;;;;;;;7.70;4.13;;;;;-1.70;96639.00;;;;5053227;28;20550;-61
2024/01/10 10:34:05;;;;;;;3.50;2.97;;;;;-1.50;96644.00;;;;5053094;28;20204;-63
2024/01/10 10:36:32;;;;;;;4.83;3.40;;;;;-1.30;96642.00;;;;5053268;28;20274;-62
2024/01/10 10:39:03;;;;;;;3.40;3.13;;;;;-1.10;96637.00;;;;5053315;28;20202;-62
2024/01/10 10:41:33;;;;;;;5.83;3.93;;;;;-1.00;96636.00;;;;5053005;28;20208;-62
2024/01/10 10:44:04;;;;;;;8.97;4.37;;;;;-0.90;96638.00;;;;5052838;28;20218;-62
2024/01/10 10:46:33;;;;;;;8.90;4.47;;;;;-1.00;96630.00;;;;5051627;28;20837;-62
2024/01/10 10:49:06;;;;;;;3.50;3.20;;;;;-1.00;96633.00;;;;5053084;28;20200;-62
2024/01/10 10:51:35;;;;;;;15.83;3.77;;;;;-1.20;96633.00;;;;5052973;28;20192;-62
2024/01/10 10:54:03;;;;;;;4.10;2.37;;;;;-1.00;96631.00;;;;5052812;28;20283;-62
2024/01/10 10:56:34;;;;;;;3.00;2.70;;;;;-1.20;96627.00;;;;5051569;28;20196;-62
2024/01/10 10:59:10;;;;;;;3.83;3.30;;;;;-1.40;96624.00;;;;5052812;28;20194;-62
2024/01/10 11:01:45;;;;;;;4.90;4.50;;;;;-1.60;96630.00;;;;5051709;28;20196;-62
2024/01/10 11:04:13;;;;;;;4.30;3.73;;;;;-1.40;96621.00;;;;5052751;28;20192;-63
2024/01/10 11:06:42;;;;;;;4.60;3.17;;;;;-0.70;96617.00;;;;5052632;28;20270;-62
2024/01/10 11:09:12;;;;;;;6.00;2.87;;;;;-0.50;96621.00;;;;5051420;28;20200;-63
2024/01/10 11:11:52;;;;;;;6.63;4.03;;;;;-0.50;96624.00;;;;5052389;28;20202;-63
2024/01/10 11:14:37;;;;;;;4.43;4.13;;;;;0.20;96604.00;;;;5052534;28;20203;-62
2024/01/10 11:17:34;;;;;;;9.33;4.37;;;;;1.00;96580.00;;;;5052091;28;20185;-62
2024/01/10 11:20:19;;;;;;;6.10;2.87;;;;;2.20;96573.00;;;;5047985;28;20217;-62
2024/01/10 11:23:16;;;;;;;4.53;4.03;;;;;3.50;96561.00;;;;5052239;28;20627;-62
2024/01/10 11:25:44;;;;;;;5.73;4.30;;;;;5.10;96572.00;;;;5051172;28;20216;-62
2024/01/10 11:28:14;;;;;;;3.83;3.47;;;;;6.30;96570.00;;;;5051511;28;20224;-62
2024/01/10 11:30:52;;;;;;;2.83;2.63;;;;;6.80;96561.00;;;;5052495;28;20587;-62
2024/01/10 11:33:22;;;;;;;2.57;1.90;;;;;8.10;96556.00;;;;5051854;28;20266;-62
2024/01/10 11:36:15;;;;;;;3.13;2.93;;;;;9.20;96565.00;;;;5051196;28;20286;-62
2024/01/10 11:38:44;;;;;;;4.90;3.90;;;;;9.80;96563.00;;;;5050072;28;20184;-62
2024/01/10 11:41:13;;;;;;;4.37;4.00;;;;;10.20;96558.00;;;;5052425;28;20212;-62
2024/01/10 11:43:40;;;;;;;3.10;2.90;;;;;9.30;96552.00;;;;5051548;28;20223;-62
2024/01/10 11:46:11;;;;;;;7.53;3.17;;;;;10.20;96558.00;;;;5051635;28;20683;-62
2024/01/10 11:48:40;;;;;;;3.43;3.13;;;;;10.50;96560.00;;;;5051773;28;20721;-62
2024/01/10 11:51:10;;;;;;;4.83;3.77;;;;;11.80;96563.00;;;;5052606;28;20333;-62
2024/01/10 11:53:46;;;;;;;4.37;4.00;;;;;12.00;96560.00;;;;5051184;28;20717;-62
2024/01/10 11:56:16;;;;;;;6.90;5.93;;;;;12.40;96566.00;;;;5051998;28;20188;-62
2024/01/10 11:59:01;;;;;;;5.30;4.80;;;;;12.60;96556.00;;;;5049887;28;20204;-62
2024/01/10 12:01:31;;;;;;;9.40;2.83;;;;;13.00;96560.00;;;;5051682;28;20196;-62
2024/01/10 12:04:00;;;;;;;5.87;4.27;;;;;14.40;96565.00;;;;5049563;28;20204;-62
2024/01/10 12:06:28;;;;;;;7.37;5.27;;;;;13.70;96564.00;;;;5051651;28;20223;-62
2024/01/10 12:08:56;;;;;;;3.37;3.07;;;;;15.40;96566.00;;;;5051049;28;20283;-60
2024/01/10 12:11:24;;;;;;;5.00;3.40;;;;;15.30;96574.00;;;;5051756;28;20195;-61
2024/01/10 12:13:51;;;;;;;5.50;4.23;;;;;16.40;96573.00;;;;5050924;28;20283;-62
2024/01/10 12:16:19;;;;;;;4.50;4.10;;;;;19.00;96572.00;;;;5051691;28;20192;-62
2024/01/10 12:18:47;;;;;;;4.20;3.80;;;;;19.40;96576.00;;;;5050970;28;20223;-62
2024/01/10 12:21:15;;;;;;;9.07;5.90;;;;;19.90;96574.00;;;;5051565;28;20673;-62
2024/01/10 12:23:42;;;;;;;5.20;4.53;;;;;20.50;96576.00;;;;5050740;28;20582;-63
2024/01/10 12:26:12;;;;;;;5.53;4.30;;;;;20.80;96584.00;;;;5050477;28;20226;-63